createdAt,value
2022-09-28T00:01:08.041Z,98531.23
2022-09-28T00:03:37.708Z,98525.73
2022-09-28T00:06:08.537Z,98526.40
2022-09-28T00:08:36.636Z,98521.13
2022-09-28T00:11:06.002Z,98517.11
2022-09-28T00:13:33.795Z,98512.55
2022-09-28T00:16:02.125Z,98508.85
2022-09-28T00:18:32.156Z,98508.32
2022-09-28T00:21:10.410Z,98507.88
2022-09-28T00:24:00.761Z,98501.17
2022-09-28T00:26:29.090Z,98495.61
2022-09-28T00:28:59.428Z,98494.05
2022-09-28T00:31:29.574Z,98492.34
2022-09-28T00:34:00.758Z,98489.92
2022-09-28T00:36:29.716Z,98487.81
2022-09-28T00:38:57.452Z,98484.55
2022-09-28T00:41:26.796Z,98479.64
2022-09-28T00:44:26.400Z,98476.52
2022-09-28T00:46:55.716Z,98475.69
2022-09-28T00:49:45.690Z,98476.73
2022-09-28T00:52:28.864Z,98478.37
2022-09-28T00:54:57.829Z,98478.92
2022-09-28T00:57:26.098Z,98475.55
2022-09-28T00:59:53.332Z,98468.66
2022-09-28T01:02:21.762Z,98471.92
2022-09-28T01:04:50.230Z,98467.75
2022-09-28T01:07:18.621Z,98466.52
2022-09-28T01:09:46.641Z,98465.61
2022-09-28T01:12:14.110Z,98469.63
2022-09-28T01:14:41.792Z,98473.98
2022-09-28T01:17:45.186Z,98473.25
2022-09-28T01:20:34.758Z,98477.91
2022-09-28T01:23:23.325Z,98478.85
2022-09-28T01:26:15.249Z,98478.66
2022-09-28T01:28:44.794Z,98473.23
2022-09-28T01:31:15.018Z,98469.61
2022-09-28T01:33:47.734Z,98469.04
2022-09-28T01:36:27.270Z,98469.41
2022-09-28T01:38:57.775Z,98470.72
2022-09-28T01:41:25.760Z,98467.89
2022-09-28T01:43:56.266Z,98468.24
2022-09-28T01:46:31.642Z,98475.23
2022-09-28T01:49:00.335Z,98474.52
2022-09-28T01:51:41.872Z,98474.27
2022-09-28T01:54:18.630Z,98472.77
2022-09-28T01:57:11.631Z,98473.76
2022-09-28T01:59:43.689Z,98471.58
2022-09-28T02:02:19.067Z,98469.59
2022-09-28T02:05:10.896Z,98472.39
2022-09-28T02:07:48.025Z,98473.15
2022-09-28T02:10:19.974Z,98470.19
2022-09-28T02:12:51.442Z,98469.68
2022-09-28T02:15:24.819Z,98470.48
2022-09-28T02:17:52.437Z,98468.48
2022-09-28T02:20:22.255Z,98466.83
2022-09-28T02:22:56.160Z,98468.52
2022-09-28T02:25:36.949Z,98463.64
2022-09-28T02:28:12.255Z,98462.84
2022-09-28T02:30:41.450Z,98461.85
2022-09-28T02:33:37.396Z,98465.64
2022-09-28T02:36:05.455Z,98467.45
2022-09-28T02:38:37.714Z,98467.02
2022-09-28T02:41:23.801Z,98465.51
2022-09-28T02:44:22.284Z,98463.07
2022-09-28T02:47:05.112Z,98460.21
2022-09-28T02:49:41.833Z,98461.77
2022-09-28T02:52:35.245Z,98458.67
2022-09-28T02:55:20.737Z,98459.98
2022-09-28T02:58:07.381Z,98463.33
2022-09-28T03:00:44.680Z,98466.88
2022-09-28T03:03:28.905Z,98470.15
2022-09-28T03:05:56.399Z,98469.42
2022-09-28T03:08:37.433Z,98471.84
2022-09-28T03:11:16.479Z,98473.74
2022-09-28T03:13:47.200Z,98471.95
2022-09-28T03:16:17.164Z,98471.28
2022-09-28T03:18:45.568Z,98475.42
2022-09-28T03:21:14.051Z,98475.98
2022-09-28T03:23:42.238Z,98474.32
2022-09-28T03:26:14.321Z,98467.73
2022-09-28T03:28:41.879Z,98467.61
2022-09-28T03:31:14.504Z,98469.92
2022-09-28T03:33:41.721Z,98470.17
2022-09-28T03:36:10.679Z,98469.29
2022-09-28T03:38:38.560Z,98466.90
2022-09-28T03:41:08.192Z,98469.62
2022-09-28T03:43:36.439Z,98468.83
2022-09-28T03:46:03.820Z,98463.09
2022-09-28T03:48:36.178Z,98459.40
2022-09-28T03:51:06.109Z,98456.64
2022-09-28T03:53:34.153Z,98458.67
2022-09-28T03:56:13.599Z,98458.48
2022-09-28T03:58:41.529Z,98450.22
2022-09-28T04:01:17.489Z,98451.88
2022-09-28T04:03:47.095Z,98449.70
2022-09-28T04:06:14.727Z,98457.02
2022-09-28T04:08:44.493Z,98456.27
2022-09-28T04:11:11.701Z,98457.55
2022-09-28T04:13:39.125Z,98462.13
2022-09-28T04:16:10.895Z,98461.40
2022-09-28T04:18:40.459Z,98457.77
2022-09-28T04:21:34.389Z,98456.30
2022-09-28T04:24:08.160Z,98453.86
2022-09-28T04:26:36.511Z,98453.83
2022-09-28T04:29:16.907Z,98449.86
2022-09-28T04:31:55.868Z,98448.36
2022-09-28T04:34:36.484Z,98449.52
2022-09-28T04:37:06.055Z,98450.54
2022-09-28T04:39:33.416Z,98450.44
2022-09-28T04:42:01.802Z,98451.23
2022-09-28T04:44:29.473Z,98448.30
2022-09-28T04:47:04.852Z,98447.80
2022-09-28T04:49:32.869Z,98450.73
2022-09-28T04:52:17.862Z,98447.17
2022-09-28T04:54:48.279Z,98447.33
2022-09-28T04:57:16.730Z,98447.21
2022-09-28T04:59:43.905Z,98440.81
2022-09-28T05:02:12.525Z,98442.66
2022-09-28T05:05:00.438Z,98442.15
2022-09-28T05:07:46.520Z,98444.23
2022-09-28T05:10:14.523Z,98443.29
2022-09-28T05:12:41.832Z,98445.80
2022-09-28T05:15:10.007Z,98450.40
2022-09-28T05:17:38.385Z,98448.60
2022-09-28T05:20:28.049Z,98449.04
2022-09-28T05:22:55.744Z,98443.83
2022-09-28T05:25:22.990Z,98443.55
2022-09-28T05:28:03.673Z,98442.02
2022-09-28T05:31:04.043Z,98439.46
2022-09-28T05:33:54.857Z,98441.11
2022-09-28T05:36:22.760Z,98439.94
2022-09-28T05:38:50.096Z,98438.91
2022-09-28T05:41:17.348Z,98436.70
2022-09-28T05:43:46.423Z,98437.75
2022-09-28T05:46:13.850Z,98433.52
2022-09-28T05:48:42.399Z,98430.17
2022-09-28T05:51:10.740Z,98432.35
2022-09-28T05:53:37.992Z,98435.77
2022-09-28T05:56:05.863Z,98433.62
2022-09-28T05:58:34.460Z,98433.45
2022-09-28T06:01:01.953Z,98436.34
2022-09-28T06:03:30.269Z,98435.69
2022-09-28T06:05:57.630Z,98432.13
2022-09-28T06:08:25.305Z,98432.21
2022-09-28T06:11:03.039Z,98432.77
2022-09-28T06:13:31.680Z,98439.36
2022-09-28T06:15:58.950Z,98440.98
2022-09-28T06:18:26.998Z,98438.85
2022-09-28T06:21:13.541Z,98443.33
2022-09-28T06:23:48.842Z,98437.45
2022-09-28T06:26:17.766Z,98431.63
2022-09-28T06:28:46.223Z,98428.52
2022-09-28T06:31:13.869Z,98426.95
2022-09-28T06:33:45.759Z,98419.95
2022-09-28T06:36:13.919Z,98417.23
2022-09-28T06:38:41.193Z,98414.89
2022-09-28T06:41:09.583Z,98411.41
2022-09-28T06:43:40.272Z,98407.80
2022-09-28T06:46:14.485Z,98411.10
2022-09-28T06:48:42.154Z,98407.52
2022-09-28T06:51:12.491Z,98403.34
2022-09-28T06:53:49.879Z,98404.95
2022-09-28T06:56:36.081Z,98400.37
2022-09-28T06:59:03.821Z,98400.36
2022-09-28T07:01:31.250Z,98399.18
2022-09-28T07:04:06.207Z,98391.56
2022-09-28T07:06:52.955Z,98394.83
2022-09-28T07:09:32.978Z,98391.31
2022-09-28T07:12:01.600Z,98388.66
2022-09-28T07:14:47.868Z,98397.80
2022-09-28T07:17:16.823Z,98402.33
2022-09-28T07:19:44.919Z,98408.70
2022-09-28T07:22:18.934Z,98411.75
2022-09-28T07:24:48.851Z,98415.55
2022-09-28T07:27:40.307Z,98410.21
2022-09-28T07:30:33.719Z,98410.86
2022-09-28T07:33:21.351Z,98409.87
2022-09-28T07:35:56.799Z,98408.59
2022-09-28T07:38:28.192Z,98406.12
2022-09-28T07:41:12.111Z,98403.93
2022-09-28T07:43:50.609Z,98405.98
2022-09-28T07:46:18.260Z,98401.86
2022-09-28T07:48:55.573Z,98397.71
2022-09-28T07:51:58.161Z,98398.54
2022-09-28T07:54:28.461Z,98396.27
2022-09-28T07:57:34.328Z,98398.45
2022-09-28T08:00:23.078Z,98396.52
2022-09-28T08:02:51.136Z,98403.23
2022-09-28T08:05:23.406Z,98398.35
2022-09-28T08:07:50.764Z,98397.63
2022-09-28T08:10:18.422Z,98391.63
2022-09-28T08:13:17.214Z,98390.70
2022-09-28T08:16:13.913Z,98393.06
2022-09-28T08:18:51.444Z,98393.14
2022-09-28T08:21:37.755Z,98388.98
2022-09-28T08:24:05.743Z,98387.99
2022-09-28T08:26:34.205Z,98380.52
2022-09-28T08:29:01.669Z,98381.84
2022-09-28T08:32:01.982Z,98382.63
2022-09-28T08:34:36.742Z,98381.44
2022-09-28T08:37:09.613Z,98380.30
2022-09-28T08:39:56.010Z,98378.58
2022-09-28T08:42:40.251Z,98376.43
2022-09-28T08:45:25.107Z,98372.14
2022-09-28T08:48:37.213Z,98373.35
2022-09-28T08:51:29.872Z,98369.56
2022-09-28T08:54:39.239Z,98366.73
2022-09-28T08:57:16.221Z,98366.10
2022-09-28T08:59:51.683Z,98363.64
2022-09-28T09:02:33.969Z,98360.89
2022-09-28T09:05:17.507Z,98359.64
2022-09-28T09:08:14.003Z,98356.89
2022-09-28T09:11:07.471Z,98353.04
2022-09-28T09:13:42.250Z,98347.90
2022-09-28T09:16:28.744Z,98348.02
2022-09-28T09:19:49.319Z,98348.42
2022-09-28T09:22:40.844Z,98352.20
2022-09-28T09:25:09.209Z,98348.67
2022-09-28T09:28:15.879Z,98348.20
2022-09-28T09:31:04.097Z,98345.65
2022-09-28T09:33:59.730Z,98338.58
2022-09-28T09:37:35.078Z,98334.54
2022-09-28T09:40:36.148Z,98330.12
2022-09-28T09:43:30.875Z,98327.06
2022-09-28T09:46:30.444Z,98326.14
2022-09-28T09:49:34.679Z,98326.35
2022-09-28T09:52:05.694Z,98323.33
2022-09-28T09:54:53.759Z,98314.34
2022-09-28T09:57:34.756Z,98322.67
2022-09-28T10:00:17.990Z,98327.36
2022-09-28T10:02:51.876Z,98334.04
2022-09-28T10:05:32.400Z,98337.70
2022-09-28T10:08:10.258Z,98351.53
2022-09-28T10:10:45.419Z,98354.63
2022-09-28T10:13:13.921Z,98356.63
2022-09-28T10:15:42.804Z,98357.46
2022-09-28T10:18:19.438Z,98358.45
2022-09-28T10:21:05.469Z,98355.98
2022-09-28T10:24:05.501Z,98356.16
2022-09-28T10:26:42.297Z,98355.33
2022-09-28T10:29:22.830Z,98355.55
2022-09-28T10:31:51.937Z,98357.82
2022-09-28T10:34:29.847Z,98362.83
2022-09-28T10:37:03.568Z,98366.04
2022-09-28T10:39:54.745Z,98372.02
2022-09-28T10:42:33.056Z,98376.63
2022-09-28T10:45:08.213Z,98382.30
2022-09-28T10:47:37.233Z,98389.00
2022-09-28T10:50:21.278Z,98391.64
2022-09-28T10:52:49.316Z,98382.39
2022-09-28T10:56:19.332Z,98370.90
2022-09-28T10:58:47.295Z,98372.70
2022-09-28T11:01:27.385Z,98369.87
2022-09-28T11:04:01.472Z,98364.26
2022-09-28T11:06:38.439Z,98357.36
2022-09-28T11:09:31.255Z,98354.71
2022-09-28T11:12:05.092Z,98337.67
2022-09-28T11:14:44.022Z,98337.67
2022-09-28T11:17:28.583Z,98337.52
2022-09-28T11:19:58.323Z,98337.13
2022-09-28T11:22:34.749Z,98338.36
2022-09-28T11:25:17.265Z,98338.56
2022-09-28T11:27:53.733Z,98331.09
2022-09-28T11:30:21.058Z,98330.29
2022-09-28T11:33:26.949Z,98324.85
2022-09-28T11:36:49.597Z,98323.57
2022-09-28T11:39:32.920Z,98326.11
2022-09-28T11:42:05.504Z,98325.27
2022-09-28T11:44:45.065Z,98324.86
2022-09-28T11:47:23.043Z,98332.98
2022-09-28T11:50:08.214Z,98335.69
2022-09-28T11:52:42.266Z,98340.25
2022-09-28T11:55:23.196Z,98343.28
2022-09-28T11:58:05.379Z,98345.60
2022-09-28T12:00:37.362Z,98343.64
2022-09-28T12:03:13.043Z,98342.60
2022-09-28T12:05:53.380Z,98340.75
2022-09-28T12:08:26.064Z,98335.52
2022-09-28T12:11:13.582Z,98328.45
2022-09-28T12:14:16.226Z,98331.00
2022-09-28T12:17:05.907Z,98333.22
2022-09-28T12:19:40.578Z,98329.37
2022-09-28T12:22:33.833Z,98321.01
2022-09-28T12:25:02.865Z,98310.27
2022-09-28T12:27:42.762Z,98313.71
2022-09-28T12:30:22.542Z,98313.64
2022-09-28T12:32:50.995Z,98313.58
2022-09-28T12:35:49.061Z,98313.20
2022-09-28T12:38:31.885Z,98312.60
2022-09-28T12:41:29.136Z,98308.67
2022-09-28T12:44:12.099Z,98304.10
2022-09-28T12:47:16.785Z,98308.73
2022-09-28T12:53:20.107Z,98280.91
2022-09-28T12:55:56.802Z,98267.36
2022-09-28T12:58:37.334Z,98261.48
2022-09-28T13:01:32.607Z,98265.52
2022-09-28T13:04:06.897Z,98273.04
2022-09-28T13:06:44.791Z,98267.56
2022-09-28T13:09:22.871Z,98265.12
2022-09-28T13:11:59.233Z,98274.43
2022-09-28T13:14:54.409Z,98279.42
2022-09-28T13:17:39.235Z,98278.02
2022-09-28T13:20:40.248Z,98281.23
2022-09-28T13:23:15.320Z,98280.77
2022-09-28T13:26:11.416Z,98285.69
2022-09-28T13:28:39.690Z,98283.25
2022-09-28T13:31:07.869Z,98276.80
2022-09-28T13:33:40.826Z,98275.59
2022-09-28T13:36:26.953Z,98267.43
2022-09-28T13:38:55.649Z,98264.81
2022-09-28T13:41:37.040Z,98266.30
2022-09-28T13:44:24.232Z,98272.77
2022-09-28T13:47:10.759Z,98277.33
2022-09-28T13:49:58.321Z,98273.85
2022-09-28T13:52:35.059Z,98276.05
2022-09-28T13:55:11.239Z,98273.76
2022-09-28T13:57:59.546Z,98272.43
2022-09-28T14:00:47.485Z,98266.21
2022-09-28T14:03:37.358Z,98269.21
2022-09-28T14:06:23.573Z,98266.61
2022-09-28T14:09:23.468Z,98262.01
2022-09-28T14:12:01.391Z,98254.85
2022-09-28T14:14:53.307Z,98255.02
2022-09-28T14:17:23.932Z,98258.20
2022-09-28T14:19:54.056Z,98259.02
2022-09-28T14:22:36.882Z,98258.95
2022-09-28T14:25:15.606Z,98260.02
2022-09-28T14:27:53.702Z,98254.69
2022-09-28T14:30:24.016Z,98253.71
2022-09-28T14:32:58.315Z,98253.82
2022-09-28T14:35:28.365Z,98252.19
2022-09-28T14:38:18.039Z,98252.87
2022-09-28T14:41:11.515Z,98257.30
2022-09-28T14:43:38.658Z,98254.54
2022-09-28T14:46:11.719Z,98248.02
2022-09-28T14:48:44.842Z,98249.38
2022-09-28T14:51:27.447Z,98244.93
2022-09-28T14:54:01.303Z,98240.65
2022-09-28T14:56:32.748Z,98238.61
2022-09-28T14:59:01.067Z,98236.23
2022-09-28T15:01:28.435Z,98235.08
2022-09-28T15:03:57.149Z,98236.41
2022-09-28T15:06:26.031Z,98239.84
2022-09-28T15:08:53.358Z,98241.59
2022-09-28T15:11:23.913Z,98250.01
2022-09-28T15:13:54.419Z,98255.17
2022-09-28T15:16:24.531Z,98257.48
2022-09-28T15:19:04.483Z,98250.32
2022-09-28T15:21:38.005Z,98253.30
2022-09-28T15:24:24.413Z,98252.48
2022-09-28T15:26:52.372Z,98259.14
2022-09-28T15:29:20.908Z,98256.90
2022-09-28T15:31:52.305Z,98259.50
2022-09-28T15:34:48.175Z,98259.77
2022-09-28T15:37:18.658Z,98259.85
2022-09-28T15:39:49.079Z,98260.45
2022-09-28T15:42:18.867Z,98261.44
2022-09-28T15:45:23.501Z,98259.98
2022-09-28T15:47:52.839Z,98271.06
2022-09-28T15:50:29.232Z,98275.29
2022-09-28T15:53:01.775Z,98280.56
2022-09-28T15:55:35.058Z,98277.02
2022-09-28T15:58:18.354Z,98280.33
2022-09-28T16:00:50.447Z,98284.08
2022-09-28T16:03:18.119Z,98290.48
2022-09-28T16:06:10.345Z,98288.15
2022-09-28T16:08:45.831Z,98292.43
2022-09-28T16:11:22.276Z,98295.02
2022-09-28T16:14:17.902Z,98296.42
2022-09-28T16:16:51.499Z,98297.23
2022-09-28T16:19:23.968Z,98297.85
2022-09-28T16:21:56.843Z,98301.98
2022-09-28T16:24:31.145Z,98301.11
2022-09-28T16:27:03.769Z,98301.85
2022-09-28T16:29:40.476Z,98307.27
2022-09-28T16:32:26.776Z,98307.56
2022-09-28T16:35:23.579Z,98312.42
2022-09-28T16:38:04.458Z,98313.27
2022-09-28T16:40:33.048Z,98317.73
2022-09-28T16:43:03.698Z,98321.95
2022-09-28T16:45:31.274Z,98328.38
2022-09-28T16:47:59.030Z,98330.53
2022-09-28T16:50:26.598Z,98334.69
2022-09-28T16:53:18.725Z,98338.98
2022-09-28T16:55:47.963Z,98340.17
2022-09-28T16:58:15.473Z,98333.58
2022-09-28T17:00:43.881Z,98340.81
2022-09-28T17:03:16.756Z,98344.09
2022-09-28T17:05:44.703Z,98346.17
2022-09-28T17:08:17.702Z,98350.13
2022-09-28T17:11:13.935Z,98348.30
2022-09-28T17:13:45.475Z,98351.08
2022-09-28T17:16:28.252Z,98357.60
2022-09-28T17:19:06.319Z,98355.89
2022-09-28T17:21:34.057Z,98359.96
2022-09-28T17:24:01.963Z,98362.30
2022-09-28T17:26:35.053Z,98360.73
2022-09-28T17:29:09.032Z,98363.73
2022-09-28T17:31:36.484Z,98366.55
2022-09-28T17:34:03.835Z,98368.27
2022-09-28T17:36:31.291Z,98371.98
2022-09-28T17:38:58.744Z,98368.46
2022-09-28T17:41:26.001Z,98372.44
2022-09-28T17:43:53.352Z,98374.16
2022-09-28T17:46:30.667Z,98382.50
2022-09-28T17:49:02.132Z,98384.07
2022-09-28T17:51:31.438Z,98388.48
2022-09-28T17:54:01.378Z,98392.84
2022-09-28T17:56:32.375Z,98398.59
2022-09-28T17:59:06.341Z,98398.88
2022-09-28T18:01:34.966Z,98402.78
2022-09-28T18:04:04.168Z,98407.66
2022-09-28T18:06:34.010Z,98415.27
2022-09-28T18:09:03.483Z,98417.64
2022-09-28T18:11:32.596Z,98419.74
2022-09-28T18:14:00.060Z,98429.15
2022-09-28T18:16:29.181Z,98429.36
2022-09-28T18:18:56.649Z,98431.59
2022-09-28T18:21:24.225Z,98435.71
2022-09-28T18:23:51.669Z,98440.20
2022-09-28T18:26:22.093Z,98442.08
2022-09-28T18:28:54.674Z,98441.97
2022-09-28T18:31:22.188Z,98439.91
2022-09-28T18:36:36.514Z,98449.83
2022-09-28T18:39:04.737Z,98449.80
2022-09-28T18:41:32.247Z,98448.88
2022-09-28T18:44:03.071Z,98453.48
2022-09-28T18:46:37.376Z,98455.23
2022-09-28T18:49:05.873Z,98461.47
2022-09-28T18:51:34.239Z,98461.84
2022-09-28T18:54:08.012Z,98464.02
2022-09-28T18:56:38.198Z,98465.77
2022-09-28T18:59:11.247Z,98464.90
2022-09-28T19:01:42.420Z,98463.38
2022-09-28T19:04:11.319Z,98468.01
2022-09-28T19:06:43.041Z,98469.56
2022-09-28T19:09:15.125Z,98468.73
2022-09-28T19:11:42.869Z,98476.22
2022-09-28T19:14:11.704Z,98474.77
2022-09-28T19:16:39.313Z,98478.63
2022-09-28T19:19:07.211Z,98483.66
2022-09-28T19:21:34.810Z,98482.64
2022-09-28T19:24:03.946Z,98484.48
2022-09-28T19:26:32.215Z,98480.79
2022-09-28T19:29:00.233Z,98478.45
2022-09-28T19:31:29.548Z,98482.95
2022-09-28T19:33:57.380Z,98482.48
2022-09-28T19:36:26.439Z,98485.38
2022-09-28T19:38:54.208Z,98489.32
2022-09-28T19:41:44.201Z,98491.18
2022-09-28T19:44:30.494Z,98494.61
2022-09-28T19:46:59.029Z,98499.44
2022-09-28T19:49:28.180Z,98502.44
2022-09-28T19:52:12.219Z,98509.75
2022-09-28T19:54:57.822Z,98513.53
2022-09-28T19:57:28.074Z,98515.86
2022-09-28T20:00:01.709Z,98522.06
2022-09-28T20:02:34.874Z,98529.11
2022-09-28T20:05:03.194Z,98531.10
2022-09-28T20:07:33.744Z,98536.66
2022-09-28T20:10:01.079Z,98536.30
2022-09-28T20:12:28.755Z,98538.80
2022-09-28T20:14:56.384Z,98539.41
2022-09-28T20:17:24.154Z,98547.28
2022-09-28T20:19:52.445Z,98549.66
2022-09-28T20:22:20.652Z,98556.34
2022-09-28T20:24:48.279Z,98559.48
2022-09-28T20:27:16.015Z,98567.27
2022-09-28T20:29:43.919Z,98568.59
2022-09-28T20:32:12.265Z,98565.52
2022-09-28T20:34:40.638Z,98571.48
2022-09-28T20:37:08.261Z,98577.58
2022-09-28T20:39:35.553Z,98577.48
2022-09-28T20:42:03.569Z,98581.02
2022-09-28T20:44:31.805Z,98583.59
2022-09-28T20:46:59.919Z,98590.49
2022-09-28T20:49:28.692Z,98595.19
2022-09-28T20:51:56.112Z,98596.30
2022-09-28T20:54:24.724Z,98600.30
2022-09-28T20:56:52.411Z,98604.80
2022-09-28T20:59:23.187Z,98610.17
2022-09-28T21:01:51.500Z,98615.03
2022-09-28T21:04:19.893Z,98617.36
2022-09-28T21:06:47.244Z,98611.59
2022-09-28T21:09:14.560Z,98610.89
2022-09-28T21:11:42.127Z,98609.66
2022-09-28T21:14:10.799Z,98613.65
2022-09-28T21:16:38.558Z,98614.38
2022-09-28T21:19:05.929Z,98621.59
2022-09-28T21:21:33.515Z,98627.29
2022-09-28T21:24:01.349Z,98626.80
2022-09-28T21:26:30.604Z,98627.67
2022-09-28T21:29:01.032Z,98625.92
2022-09-28T21:31:32.872Z,98625.01
2022-09-28T21:34:00.798Z,98630.25
2022-09-28T21:36:28.039Z,98631.89
2022-09-28T21:38:56.391Z,98634.64
2022-09-28T21:41:25.043Z,98638.58
2022-09-28T21:43:52.572Z,98643.31
2022-09-28T21:46:19.892Z,98647.94
2022-09-28T21:48:51.200Z,98650.81
2022-09-28T21:51:18.749Z,98652.64
2022-09-28T21:53:45.983Z,98659.23
2022-09-28T21:56:13.839Z,98660.98
2022-09-28T21:58:41.122Z,98658.51
2022-09-28T22:01:19.860Z,98655.00
2022-09-28T22:03:49.553Z,98652.47
2022-09-28T22:06:18.717Z,98653.71
2022-09-28T22:08:47.121Z,98654.20
2022-09-28T22:11:17.504Z,98657.63
2022-09-28T22:13:51.039Z,98659.20
2022-09-28T22:16:20.513Z,98667.02
2022-09-28T22:18:48.558Z,98667.62
2022-09-28T22:21:22.522Z,98669.35
2022-09-28T22:23:50.584Z,98671.42
2022-09-28T22:26:20.486Z,98673.80
2022-09-28T22:28:55.639Z,98675.19
2022-09-28T22:31:25.590Z,98675.88
2022-09-28T22:33:53.518Z,98676.34
2022-09-28T22:36:21.473Z,98677.84
2022-09-28T22:38:49.547Z,98678.35
2022-09-28T22:41:19.915Z,98677.08
2022-09-28T22:43:48.445Z,98680.52
2022-09-28T22:46:18.890Z,98684.72
2022-09-28T22:48:51.630Z,98687.48
2022-09-28T22:51:19.451Z,98688.72
2022-09-28T22:53:46.671Z,98691.24
2022-09-28T22:56:18.404Z,98688.39
2022-09-28T22:58:47.041Z,98694.20
2022-09-28T23:01:16.133Z,98692.77
2022-09-28T23:03:45.222Z,98694.25
2022-09-28T23:06:14.359Z,98697.41
2022-09-28T23:08:41.859Z,98699.67
2022-09-28T23:11:09.657Z,98701.41
2022-09-28T23:13:38.692Z,98700.20
2022-09-28T23:16:08.181Z,98698.32
2022-09-28T23:18:37.959Z,98693.48
2022-09-28T23:21:08.146Z,98690.14
2022-09-28T23:23:35.515Z,98693.63
2022-09-28T23:26:17.351Z,98691.13
2022-09-28T23:28:44.675Z,98694.36
2022-09-28T23:31:15.057Z,98696.63
2022-09-28T23:33:42.350Z,98697.27
2022-09-28T23:36:10.319Z,98696.47
2022-09-28T23:38:37.871Z,98696.05
2022-09-28T23:41:05.616Z,98692.36
2022-09-28T23:43:33.400Z,98692.48
2022-09-28T23:46:00.940Z,98692.88
2022-09-28T23:48:28.441Z,98689.86
2022-09-28T23:50:55.879Z,98689.35
2022-09-28T23:53:23.072Z,98694.72
2022-09-28T23:55:50.768Z,98696.34
2022-09-28T23:58:18.033Z,98699.63
